テヘラン の空港の天気 - METARとTAF

メヘラーバード国際空港(テヘラン) ( OIII / THR ) - イラン テヘラン
飛行場実況気象(Metar)
観測時間04/21 21:00 IRDT (04/21 16:30 UTC)
風向・風速静穏 0m/s
視程10km以上
天気現象
少しの雲 雲底高度 1220m
気温18℃
湿度16%
気圧1010hPa
METAROIII 211630Z 00000KT 9999 FEW040 18/M08 Q1010 A2984
過去の天気等 Google飛行場航空写真 Wunderground天気予報

過去48時間のMETAR

飛行場予報(TAF)
発表時間: 4/21 16:20 IRDT (4/21 11:50 UTC)
予報対象時間: 21日16時 IRDT ~ 22日22時 IRDT
風向・風速西南西 4m/s
視程8000m
少しの雲 雲底高度 1070m
全天の4割程度の雲 雲底高度 2740m
22日5時 IRDT ~ 22日7時 IRDT に徐々に
視程4000m
天気現象雨 もや
22日9時 IRDT ~ 22日11時 IRDT に徐々に
視程6000m
少しの積乱雲 雲底高度 910m
全天の4割程度の雲 雲底高度 1070m
全天を覆う雲 雲底高度 2130m
22日13時 IRDT ~ 22日18時 IRDT に一時的に
風向・風速南東 4m/s 瞬間風速 9m/s
視程4000m
天気現象雷雨
全天の4割程度の積乱雲 雲底高度 910m
全天の4割程度の雲 雲底高度 1070m
全天を覆う雲 雲底高度 2130m
22日19時 IRDT ~ 22日21時 IRDT に徐々に
風向・風速西 6m/s
少しの雲 雲底高度 1070m
全天の4割程度の雲 雲底高度 2740m
TAF OIII 211150Z 2112/2218 25008KT 8000 FEW035 SCT090
BECMG 2201/2203 4000 RA BR
BECMG 2205/2207 6000 FEW030CB SCT035 OVC070
TEMPO 2209/2214 14008G18KT 4000 TSRA SCT030CB SCT035 OVC070
BECMG 2215/2217 27012KT FEW035 SCT090